Aviation Digital Data Service (ADDS)

Output produced by METARs form (0612 UTC 22 February 2017)
found at http://aviationweather.gov/adds/metars/
 
KAEX 220553Z 28005KT 10SM OVC028 16/14 A2985 RMK AO2 SLP113 60000 T01610144 10183 20161 402220144 58003